Portada
METAR-TAF:

METAR-TAF

Aeroports :

Gorgan, Iran

latitud: 36-49N, longitud: 054-28E, altitud: 155 m

Observació

L'informe es va fer fa 40 minuts, a les 06:00 UTC
Vent calma
Temperatura 9°C
Humitat 66%
Pressió 1013 hPa
Visibilitat 10 km o més
sense núvols per sota de 1500 mi sense presència de cumulonimbus.

METAR: OING 280600Z 00000KT CAVOK 09/03 Q1013 NOSIG

Hora: 10:10 (06:40 UTC)


TAF: manca

Observacions i pronòstics meteorològics de més de 4000 aeroports (METAR i TAF).

Les estacions disponibles són els punts grocs i vermells al mapa.

Posi el ratolí al punt desitjat per veure el nom de l'estació.

Feu clic per veure les observacions i els pronòstics meteorològics.

Per canviar el mapa: feu clic els botons verds amb una creu de color negre per apropar; al botó verd amb un guió per allunyar la imatge; o en les fletxes verdes per a mapes adjacents.


METAR-TAF: